Time;durP1;ratioP1;P1;durP2;ratioP2;P2;SDS_P1;SDS_P2;PMS_P1;PMS_P2;Temp;Humidity;BMP_temperature;BMP_pressure;BME280_temperature;BME280_humidity;BME280_pressure;Samples;Min_cycle;Max_cycle;Signal;HPM_P1;HPM_P2
2022/08/09 00:03:11;;;;;;;12.20;8.00;;;;;;;13.19;67.33;99468.82;433021;1271;110734;-40
2022/08/09 00:13:38;;;;;;;12.80;7.40;;;;;;;13.23;67.74;99465.95;432882;1270;108112;-41
2022/08/09 00:23:47;;;;;;;14.70;7.90;;;;;;;13.17;67.63;99465.31;432759;1271;97901;-40
2022/08/09 00:34:05;;;;;;;14.20;7.30;;;;;;;13.05;68.04;99464.09;432607;1270;108896;-39
2022/08/09 00:44:13;;;;;;;11.00;7.20;;;;;;;13.01;68.42;99464.06;433070;1271;97709;-41
2022/08/09 00:54:34;;;;;;;21.90;9.60;;;;;;;12.93;68.59;99471.19;432555;1271;111793;-40
2022/08/09 01:14:51;;;;;;;13.30;8.00;;;;;;;12.42;69.18;99463.52;433742;1261;97913;-39
2022/08/09 01:24:57;;;;;;;9.00;6.80;;;;;;;12.34;69.26;99460.60;433718;1269;110193;-40
2022/08/09 01:35:12;;;;;;;12.30;7.90;;;;;;;12.39;69.82;99465.80;433482;1270;108749;-39
2022/08/09 01:55:55;;;;;;;12.30;7.20;;;;;;;12.21;70.15;99468.59;433704;1270;108742;-40
2022/08/09 02:06:04;;;;;;;15.10;9.00;;;;;;;12.22;70.24;99468.62;433922;1270;97920;-41
2022/08/09 02:16:14;;;;;;;12.90;7.20;;;;;;;11.94;70.29;99477.98;433290;1271;97525;-41
2022/08/09 02:26:20;;;;;;;;;;;;;;;11.76;70.43;99480.80;433584;1269;107669;-40
2022/08/09 02:36:37;;;;;;;11.00;7.40;;;;;;;11.72;70.68;99468.64;433823;1269;97488;-41
2022/08/09 02:46:50;;;;;;;11.50;6.80;;;;;;;11.72;71.10;99465.27;433539;1269;111118;-39
2022/08/09 02:57:00;;;;;;;13.50;8.70;;;;;;;11.87;71.19;99464.48;433848;1270;108895;-40
2022/08/09 03:07:20;;;;;;;14.00;8.40;;;;;;;11.75;71.16;99461.98;433325;1270;98689;-39
2022/08/09 03:17:28;;;;;;;10.60;8.00;;;;;;;11.55;71.17;99458.02;434235;1268;110844;-41
2022/08/09 03:27:37;;;;;;;12.00;6.80;;;;;;;11.56;71.62;99462.62;433298;1269;108780;-40
2022/08/09 03:37:52;;;;;;;11.20;6.60;;;;;;;11.73;71.56;99459.17;433552;1268;96659;-40
2022/08/09 03:48:03;;;;;;;12.50;7.00;;;;;;;11.68;71.41;99460.48;433344;1270;108984;-40
2022/08/09 03:58:11;;;;;;;15.20;9.20;;;;;;;11.77;71.76;99468.53;433666;1268;97892;-42
2022/08/09 04:08:26;;;;;;;19.70;9.20;;;;;;;11.75;71.47;99485.77;433402;1268;97882;-40
2022/08/09 04:28:42;;;;;;;18.40;7.90;;;;;;;13.83;70.98;99487.61;433546;1271;98143;-40
2022/08/09 04:38:51;;;;;;;9.40;7.40;;;;;;;16.04;70.01;99479.01;433672;1267;97997;-41
2022/08/09 04:48:59;;;;;;;12.10;7.80;;;;;;;17.56;68.19;99478.01;433432;1268;110937;-41
2022/08/09 04:59:06;;;;;;;21.80;8.00;;;;;;;18.89;66.75;99469.91;433603;1269;108833;-40
2022/08/09 05:09:21;;;;;;;9.50;7.60;;;;;;;19.24;65.21;99479.13;433713;1269;97894;-40
2022/08/09 05:19:30;;;;;;;15.10;6.90;;;;;;;19.81;64.81;99491.27;433264;1269;97892;-41
2022/08/09 05:29:52;;;;;;;9.80;6.30;;;;;;;20.58;64.28;99502.65;432535;1268;110711;-40
2022/08/09 05:39:59;;;;;;;;;;;;;;;20.81;63.67;99504.14;433596;1268;108399;-39
2022/08/09 05:50:04;;;;;;;14.40;5.40;;;;;;;21.70;63.10;99507.89;433402;1270;97892;-39
2022/08/09 06:00:32;;;;;;;13.00;6.10;;;;;;;21.94;62.54;99504.99;433297;1269;111673;-40
2022/08/09 06:10:39;;;;;;;9.70;5.60;;;;;;;23.07;62.06;99501.72;433126;1270;107814;-41
2022/08/09 06:20:46;;;;;;;12.80;6.10;;;;;;;23.56;60.33;99504.40;433482;1270;98229;-41
2022/08/09 06:31:00;;;;;;;12.60;5.80;;;;;;;23.59;59.65;99509.33;433841;1268;97919;-40
2022/08/09 06:41:08;;;;;;;13.10;6.50;;;;;;;24.33;58.97;99516.80;433158;1270;111050;-41
2022/08/09 06:51:25;;;;;;;13.40;7.50;;;;;;;24.57;57.82;99524.09;433012;1270;108975;-41
2022/08/09 07:01:34;;;;;;;16.10;6.30;;;;;;;24.35;56.76;99530.60;433281;1269;108880;-39
2022/08/09 07:12:01;;;;;;;14.10;4.00;;;;;;;24.34;56.32;99539.27;433517;1269;97943;-42
2022/08/09 07:22:08;;;;;;;5.50;2.70;;;;;;;24.39;54.94;99546.10;433315;1269;111262;-42
2022/08/09 07:32:17;;;;;;;9.40;2.80;;;;;;;24.33;53.89;99547.40;433203;1270;107702;-41
2022/08/09 07:42:28;;;;;;;7.80;2.40;;;;;;;23.99;53.31;99544.77;433034;1269;109167;-42
2022/08/09 07:52:40;;;;;;;5.30;2.50;;;;;;;24.06;52.95;99554.45;433760;1268;97904;-41
2022/08/09 08:02:49;;;;;;;10.40;3.90;;;;;;;24.31;52.06;99554.08;433520;1269;110958;-41
2022/08/09 08:12:56;;;;;;;6.10;1.80;;;;;;;24.38;51.44;99554.95;433203;1270;107954;-42
2022/08/09 08:23:05;;;;;;;2.90;1.60;;;;;;;24.34;50.42;99558.79;433386;1270;107903;-40
2022/08/09 08:33:24;;;;;;;3.90;1.60;;;;;;;24.69;49.58;99559.56;433178;1270;97930;-41
2022/08/09 08:43:50;;;;;;;;;;;;;;;24.60;48.40;99560.48;433839;1268;111371;-40
2022/08/09 08:53:58;;;;;;;3.30;1.40;;;;;;;24.71;47.68;99570.54;433391;1269;108709;-40
2022/08/09 09:04:08;;;;;;;4.40;1.40;;;;;;;24.63;45.90;99574.53;433195;1269;109388;-41
2022/08/09 09:14:16;;;;;;;3.00;1.10;;;;;;;24.15;44.29;99575.14;433542;1271;97998;-41
2022/08/09 09:24:27;;;;;;;2.70;1.20;;;;;;;23.98;44.06;99569.34;433383;1269;111197;-39
2022/08/09 09:34:36;;;;;;;2.80;1.30;;;;;;;24.03;44.19;99572.65;433112;1270;108896;-41
2022/08/09 09:44:45;;;;;;;3.50;1.70;;;;;;;24.27;43.80;99579.23;433196;1268;108794;-41
2022/08/09 09:55:00;;;;;;;3.80;1.40;;;;;;;24.53;43.25;99572.73;433222;1271;97525;-40
2022/08/09 10:05:12;;;;;;;5.60;1.40;;;;;;;25.04;43.49;99565.99;433913;1268;110545;-40
2022/08/09 10:15:18;;;;;;;2.80;1.00;;;;;;;24.58;43.18;99563.81;433257;1271;108242;-41
2022/08/09 10:25:44;;;;;;;4.10;1.50;;;;;;;24.49;43.80;99556.58;433519;1269;97875;-40
2022/08/09 10:36:13;;;;;;;5.40;1.30;;;;;;;24.42;43.56;99557.02;433757;1268;111409;-40
2022/08/09 10:46:51;;;;;;;1.50;0.90;;;;;;;24.49;44.20;99545.30;433433;1271;108800;-40
2022/08/09 11:28:34;;;;;;;3.00;0.80;;;;;;;24.44;42.65;99544.06;433417;1271;108049;-40
2022/08/09 11:39:00;;;;;;;1.90;1.00;;;;;;;24.28;42.89;99533.20;433163;1269;97352;-40
2022/08/09 11:49:07;;;;;;;4.60;1.10;;;;;;;23.98;42.24;99538.16;433388;1271;111202;-40
2022/08/09 11:59:26;;;;;;;2.50;1.00;;;;;;;24.14;42.91;99533.39;433539;1271;108393;-40
2022/08/09 12:09:37;;;;;;;;;;;;;;;24.17;43.04;99538.41;433237;1270;109272;-40
2022/08/09 12:19:49;;;;;;;3.70;1.00;;;;;;;24.21;42.64;99537.00;433417;1271;97538;-41
2022/08/09 12:30:06;;;;;;;2.10;1.20;;;;;;;24.02;42.81;99537.60;433290;1270;111058;-40
2022/08/09 12:40:43;;;;;;;2.80;1.00;;;;;;;23.79;43.39;99535.77;433220;1269;108752;-40
2022/08/09 12:50:52;;;;;;;6.30;1.50;;;;;;;23.72;44.09;99534.70;433354;1271;97891;-40
2022/08/09 13:01:02;;;;;;;4.40;1.80;;;;;;;23.84;44.91;99536.80;433213;1270;111164;-41
2022/08/09 13:11:11;;;;;;;3.40;1.20;;;;;;;23.91;44.52;99529.94;433438;1270;108394;-41
2022/08/09 13:21:32;;;;;;;4.00;1.50;;;;;;;24.19;44.34;99528.40;433361;1271;97983;-39
2022/08/09 13:42:22;;;;;;;2.80;1.10;;;;;;;24.65;42.94;99524.20;433547;1270;110868;-38
2022/08/09 13:52:29;;;;;;;;;;;;;;;24.27;42.89;99516.00;433052;1270;108866;-40
2022/08/09 14:02:36;;;;;;;2.80;1.30;;;;;;;24.30;43.38;99510.91;432879;1270;97538;-40
2022/08/09 14:12:49;;;;;;;5.40;1.40;;;;;;;24.02;43.51;99514.20;433665;1268;111242;-40
2022/08/09 14:22:56;;;;;;;1.90;1.80;;;;;;;23.81;43.85;99515.20;432883;1271;108923;-40
2022/08/09 14:33:02;;;;;;;;;;;;;;;24.05;44.24;99513.66;433018;1271;98222;-40
2022/08/09 14:43:16;;;;;;;4.30;1.50;;;;;;;23.95;44.00;99509.98;433712;1268;110429;-40
2022/08/09 14:53:22;;;;;;;;;;;;;;;23.46;44.51;99512.10;433138;1268;108366;-40
2022/08/09 15:03:29;;;;;;;5.80;2.00;;;;;;;23.14;45.13;99514.11;433406;1268;97883;-41
2022/08/09 15:13:37;;;;;;;7.00;1.50;;;;;;;23.19;45.25;99511.98;433453;1268;98013;-39
2022/08/09 15:24:02;;;;;;;2.40;1.40;;;;;;;23.26;45.42;99508.84;433292;1268;111286;-40
2022/08/09 15:34:21;;;;;;;3.70;1.70;;;;;;;23.26;45.46;99498.09;433408;1268;108329;-39
2022/08/09 15:44:40;;;;;;;3.80;1.70;;;;;;;23.32;45.15;99502.27;433611;1268;109053;-39
2022/08/09 15:54:48;;;;;;;4.80;1.50;;;;;;;23.26;45.37;99504.94;433511;1268;97878;-39
2022/08/09 16:04:57;;;;;;;6.70;1.30;;;;;;;23.08;45.12;99502.92;433472;1267;111111;-42
2022/08/09 16:35:47;;;;;;;6.30;2.50;;;;;;;22.73;44.92;99496.08;433337;1267;97916;-41
2022/08/09 16:46:05;;;;;;;8.10;1.80;;;;;;;22.61;45.03;99502.56;433953;1268;111076;-40
2022/08/09 16:56:13;;;;;;;6.90;1.80;;;;;;;22.44;45.16;99505.50;433689;1267;107545;-40
2022/08/09 17:06:20;;;;;;;4.40;2.20;;;;;;;22.31;45.66;99506.94;433620;1268;97885;-40
2022/08/09 17:16:38;;;;;;;7.90;2.20;;;;;;;22.13;45.79;99515.89;433579;1268;97483;-40
2022/08/09 17:26:44;;;;;;;;;;;;;;;21.93;46.24;99525.52;432203;1268;1599840;-40
2022/08/09 17:36:59;;;;;;;9.40;2.20;;;;;;;21.58;47.00;99535.31;433468;1268;107535;-41
2022/08/09 17:47:07;;;;;;;8.30;2.40;;;;;;;21.21;47.51;99539.39;433816;1268;97892;-41
2022/08/09 17:57:16;;;;;;;29.50;4.00;;;;;;;20.82;48.37;99535.58;433657;1268;111073;-41
2022/08/09 18:07:43;;;;;;;6.60;2.50;;;;;;;20.47;49.27;99541.20;433711;1268;107800;-41
2022/08/09 18:17:56;;;;;;;7.90;3.10;;;;;;;20.09;49.79;99548.60;433351;1268;108800;-41
2022/08/09 18:28:10;;;;;;;15.90;5.20;;;;;;;19.67;50.71;99554.48;433660;1268;97971;-41
2022/08/09 18:48:44;;;;;;;10.40;3.70;;;;;;;18.90;52.00;99572.14;433583;1268;111918;-41
2022/08/09 18:58:54;;;;;;;5.00;4.30;;;;;;;18.65;52.77;99581.11;433594;1268;107748;-40
2022/08/09 19:09:02;;;;;;;6.00;3.30;;;;;;;18.44;53.52;99575.86;433620;1268;97890;-40
2022/08/09 19:19:09;;;;;;;8.40;3.60;;;;;;;18.32;54.34;99582.43;433597;1268;110967;-40
2022/08/09 19:29:34;;;;;;;10.60;4.30;;;;;;;18.04;55.05;99593.08;433628;1268;108819;-41
2022/08/09 19:40:01;;;;;;;11.60;4.90;;;;;;;17.74;55.93;99600.83;433492;1267;97873;-40
2022/08/09 19:50:12;;;;;;;8.60;4.40;;;;;;;17.48;56.39;99596.29;433387;1268;111052;-39
2022/08/09 20:00:41;;;;;;;5.70;3.70;;;;;;;17.16;57.17;99597.95;433614;1268;108832;-39
2022/08/09 20:10:54;;;;;;;6.60;4.40;;;;;;;16.93;57.98;99597.52;433141;1268;97254;-41
2022/08/09 20:21:02;;;;;;;5.90;4.80;;;;;;;16.77;58.78;99599.05;432181;1268;110037;-41
2022/08/09 20:31:14;;;;;;;16.60;6.20;;;;;;;16.56;59.47;99601.23;433688;1268;108770;-42
2022/08/09 20:41:21;;;;;;;18.30;6.60;;;;;;;16.28;59.95;99603.96;433466;1268;108816;-41
2022/08/09 20:51:44;;;;;;;18.50;5.30;;;;;;;16.02;60.38;99603.54;433934;1268;97885;-41
2022/08/09 21:01:58;;;;;;;13.90;6.60;;;;;;;16.00;61.28;99604.08;434037;1268;108882;-41
2022/08/09 21:12:03;;;;;;;14.80;7.70;;;;;;;15.91;61.84;99610.56;433617;1268;97528;-41
2022/08/09 21:22:13;;;;;;;11.90;7.50;;;;;;;15.70;62.44;99616.41;433738;1268;96587;-40
2022/08/09 21:32:43;;;;;;;8.90;6.30;;;;;;;15.42;62.47;99620.12;433325;1268;109790;-41
2022/08/09 21:42:57;;;;;;;12.80;7.80;;;;;;;15.07;63.00;99617.75;433385;1268;108733;-40
2022/08/09 21:53:04;;;;;;;16.40;7.70;;;;;;;14.99;63.85;99622.55;433462;1268;96667;-40
2022/08/09 22:03:21;;;;;;;15.70;6.90;;;;;;;14.79;64.30;99630.62;433845;1268;108843;-40
2022/08/09 22:13:33;;;;;;;13.00;7.00;;;;;;;14.69;64.65;99630.67;433765;1268;97514;-41
2022/08/09 22:23:41;;;;;;;17.40;7.90;;;;;;;14.51;65.13;99630.99;433849;1268;97897;-39
2022/08/09 22:34:07;;;;;;;14.80;6.90;;;;;;;14.35;65.39;99631.38;433520;1268;111210;-40
2022/08/09 22:44:20;;;;;;;11.20;5.90;;;;;;;14.26;65.75;99626.42;433997;1268;108866;-39
2022/08/09 23:04:32;;;;;;;11.50;5.90;;;;;;;14.41;66.64;99623.44;433657;1268;108083;-40
2022/08/09 23:14:44;;;;;;;14.70;7.60;;;;;;;14.41;67.07;99619.08;433497;1268;97912;-40
2022/08/09 23:24:52;;;;;;;13.10;7.80;;;;;;;14.33;67.26;99623.14;433720;1267;97921;-40
2022/08/09 23:34:58;;;;;;;13.40;7.20;;;;;;;14.19;67.21;99616.01;433799;1267;111306;-40
2022/08/09 23:45:07;;;;;;;7.40;5.80;;;;;;;14.04;67.34;99618.08;433507;1268;108903;-40
2022/08/09 23:55:13;;;;;;;;;;;;;;;14.00;67.80;99617.98;433290;1268;97566;-39
